sensor_id;sensor_type;location;lat;lon;timestamp;P1;durP1;ratioP1;P2;durP2;ratioP2
21192;SDS011;10754;51.106;7.164;2023-04-03T00:00:49;3.10;;;2.40;;
21192;SDS011;10754;51.106;7.164;2023-04-03T00:03:16;3.90;;;2.30;;
21192;SDS011;10754;51.106;7.164;2023-04-03T00:05:42;2.70;;;2.03;;
21192;SDS011;10754;51.106;7.164;2023-04-03T00:08:07;2.30;;;2.10;;
21192;SDS011;10754;51.106;7.164;2023-04-03T00:10:34;2.33;;;2.13;;
21192;SDS011;10754;51.106;7.164;2023-04-03T00:13:01;2.67;;;2.27;;
21192;SDS011;10754;51.106;7.164;2023-04-03T00:15:27;3.33;;;2.87;;
21192;SDS011;10754;51.106;7.164;2023-04-03T00:17:53;3.40;;;2.50;;
21192;SDS011;10754;51.106;7.164;2023-04-03T00:20:18;2.47;;;2.27;;
21192;SDS011;10754;51.106;7.164;2023-04-03T00:22:44;3.87;;;2.47;;
21192;SDS011;10754;51.106;7.164;2023-04-03T00:25:10;3.87;;;2.80;;
21192;SDS011;10754;51.106;7.164;2023-04-03T00:27:36;2.23;;;2.03;;
21192;SDS011;10754;51.106;7.164;2023-04-03T00:30:04;2.50;;;2.30;;
21192;SDS011;10754;51.106;7.164;2023-04-03T00:32:30;2.30;;;2.10;;
21192;SDS011;10754;51.106;7.164;2023-04-03T00:34:56;2.73;;;2.53;;
21192;SDS011;10754;51.106;7.164;2023-04-03T00:37:21;2.40;;;2.13;;
21192;SDS011;10754;51.106;7.164;2023-04-03T00:39:47;2.70;;;2.40;;
21192;SDS011;10754;51.106;7.164;2023-04-03T00:42:12;2.70;;;2.50;;
21192;SDS011;10754;51.106;7.164;2023-04-03T00:47:04;2.57;;;2.27;;
21192;SDS011;10754;51.106;7.164;2023-04-03T00:49:31;3.43;;;2.27;;
21192;SDS011;10754;51.106;7.164;2023-04-03T00:51:57;4.00;;;2.67;;
21192;SDS011;10754;51.106;7.164;2023-04-03T00:54:24;3.03;;;2.40;;
21192;SDS011;10754;51.106;7.164;2023-04-03T00:56:51;2.97;;;2.63;;
21192;SDS011;10754;51.106;7.164;2023-04-03T00:59:22;2.03;;;1.83;;
21192;SDS011;10754;51.106;7.164;2023-04-03T01:01:51;2.67;;;2.47;;
21192;SDS011;10754;51.106;7.164;2023-04-03T01:04:26;2.63;;;2.43;;
21192;SDS011;10754;51.106;7.164;2023-04-03T01:07:01;2.67;;;2.40;;
21192;SDS011;10754;51.106;7.164;2023-04-03T01:09:34;2.87;;;2.13;;
21192;SDS011;10754;51.106;7.164;2023-04-03T01:14:57;2.47;;;2.20;;
21192;SDS011;10754;51.106;7.164;2023-04-03T01:17:29;2.50;;;2.30;;
21192;SDS011;10754;51.106;7.164;2023-04-03T01:20:00;2.43;;;2.13;;
21192;SDS011;10754;51.106;7.164;2023-04-03T01:23:12;2.47;;;2.27;;
21192;SDS011;10754;51.106;7.164;2023-04-03T01:25:42;2.70;;;2.30;;
21192;SDS011;10754;51.106;7.164;2023-04-03T01:28:11;2.63;;;2.10;;
21192;SDS011;10754;51.106;7.164;2023-04-03T01:30:51;2.53;;;2.20;;
21192;SDS011;10754;51.106;7.164;2023-04-03T01:33:27;3.67;;;2.20;;
21192;SDS011;10754;51.106;7.164;2023-04-03T01:35:53;2.40;;;1.83;;
21192;SDS011;10754;51.106;7.164;2023-04-03T01:38:19;3.27;;;2.13;;
21192;SDS011;10754;51.106;7.164;2023-04-03T01:40:45;2.63;;;2.37;;
21192;SDS011;10754;51.106;7.164;2023-04-03T01:43:11;2.60;;;1.90;;
21192;SDS011;10754;51.106;7.164;2023-04-03T01:45:36;2.20;;;2.00;;
21192;SDS011;10754;51.106;7.164;2023-04-03T01:48:02;2.37;;;2.10;;
21192;SDS011;10754;51.106;7.164;2023-04-03T01:50:28;3.20;;;2.30;;
21192;SDS011;10754;51.106;7.164;2023-04-03T01:52:53;4.70;;;2.00;;
21192;SDS011;10754;51.106;7.164;2023-04-03T01:55:19;1.97;;;1.77;;
21192;SDS011;10754;51.106;7.164;2023-04-03T01:57:44;1.93;;;1.80;;
21192;SDS011;10754;51.106;7.164;2023-04-03T02:00:10;2.47;;;2.00;;
21192;SDS011;10754;51.106;7.164;2023-04-03T02:02:36;2.40;;;1.70;;
21192;SDS011;10754;51.106;7.164;2023-04-03T02:05:02;3.03;;;1.80;;
21192;SDS011;10754;51.106;7.164;2023-04-03T02:07:28;2.30;;;1.70;;
21192;SDS011;10754;51.106;7.164;2023-04-03T02:09:53;2.20;;;1.70;;
21192;SDS011;10754;51.106;7.164;2023-04-03T02:12:19;3.50;;;1.90;;
21192;SDS011;10754;51.106;7.164;2023-04-03T02:14:44;1.83;;;1.67;;
21192;SDS011;10754;51.106;7.164;2023-04-03T02:17:10;2.60;;;2.20;;
21192;SDS011;10754;51.106;7.164;2023-04-03T02:19:35;2.40;;;2.07;;
21192;SDS011;10754;51.106;7.164;2023-04-03T02:22:02;3.07;;;1.90;;
21192;SDS011;10754;51.106;7.164;2023-04-03T02:24:28;2.10;;;1.90;;
21192;SDS011;10754;51.106;7.164;2023-04-03T02:26:53;3.73;;;2.00;;
21192;SDS011;10754;51.106;7.164;2023-04-03T02:29:19;2.37;;;1.90;;
21192;SDS011;10754;51.106;7.164;2023-04-03T02:31:44;2.67;;;1.63;;
21192;SDS011;10754;51.106;7.164;2023-04-03T02:34:10;2.60;;;1.80;;
21192;SDS011;10754;51.106;7.164;2023-04-03T02:36:36;1.80;;;1.70;;
21192;SDS011;10754;51.106;7.164;2023-04-03T02:39:02;2.60;;;1.80;;
21192;SDS011;10754;51.106;7.164;2023-04-03T02:41:28;2.10;;;1.87;;
21192;SDS011;10754;51.106;7.164;2023-04-03T02:43:59;2.67;;;1.70;;
21192;SDS011;10754;51.106;7.164;2023-04-03T02:46:26;2.17;;;1.60;;
21192;SDS011;10754;51.106;7.164;2023-04-03T02:48:51;1.70;;;1.60;;
21192;SDS011;10754;51.106;7.164;2023-04-03T02:51:17;2.27;;;1.53;;
21192;SDS011;10754;51.106;7.164;2023-04-03T02:53:42;2.37;;;1.67;;
21192;SDS011;10754;51.106;7.164;2023-04-03T02:56:08;1.77;;;1.67;;
21192;SDS011;10754;51.106;7.164;2023-04-03T02:58:33;2.53;;;1.63;;
21192;SDS011;10754;51.106;7.164;2023-04-03T03:00:59;1.60;;;1.50;;
21192;SDS011;10754;51.106;7.164;2023-04-03T03:03:24;2.10;;;1.90;;
21192;SDS011;10754;51.106;7.164;2023-04-03T03:05:50;1.50;;;1.40;;
21192;SDS011;10754;51.106;7.164;2023-04-03T03:08:36;2.07;;;1.83;;
21192;SDS011;10754;51.106;7.164;2023-04-03T03:11:02;3.00;;;1.70;;
21192;SDS011;10754;51.106;7.164;2023-04-03T03:13:28;2.23;;;1.77;;
21192;SDS011;10754;51.106;7.164;2023-04-03T03:15:54;3.63;;;1.50;;
21192;SDS011;10754;51.106;7.164;2023-04-03T03:18:20;2.07;;;1.50;;
21192;SDS011;10754;51.106;7.164;2023-04-03T03:20:45;2.63;;;1.43;;
21192;SDS011;10754;51.106;7.164;2023-04-03T03:23:11;3.27;;;1.70;;
21192;SDS011;10754;51.106;7.164;2023-04-03T03:25:40;2.50;;;1.47;;
21192;SDS011;10754;51.106;7.164;2023-04-03T03:28:06;1.83;;;1.40;;
21192;SDS011;10754;51.106;7.164;2023-04-03T03:30:32;2.17;;;1.40;;
21192;SDS011;10754;51.106;7.164;2023-04-03T03:32:58;2.97;;;1.47;;
21192;SDS011;10754;51.106;7.164;2023-04-03T03:35:24;2.33;;;1.50;;
21192;SDS011;10754;51.106;7.164;2023-04-03T03:37:50;3.13;;;1.80;;
21192;SDS011;10754;51.106;7.164;2023-04-03T03:40:15;3.07;;;1.33;;
21192;SDS011;10754;51.106;7.164;2023-04-03T03:42:41;1.97;;;1.50;;
21192;SDS011;10754;51.106;7.164;2023-04-03T03:45:06;2.10;;;1.30;;
21192;SDS011;10754;51.106;7.164;2023-04-03T03:47:32;2.47;;;1.47;;
21192;SDS011;10754;51.106;7.164;2023-04-03T03:49:58;3.27;;;1.50;;
21192;SDS011;10754;51.106;7.164;2023-04-03T03:52:23;2.17;;;1.33;;
21192;SDS011;10754;51.106;7.164;2023-04-03T03:54:49;1.83;;;1.67;;
21192;SDS011;10754;51.106;7.164;2023-04-03T03:57:15;1.97;;;1.20;;
21192;SDS011;10754;51.106;7.164;2023-04-03T03:59:41;1.93;;;1.37;;
21192;SDS011;10754;51.106;7.164;2023-04-03T04:02:06;2.43;;;1.80;;
21192;SDS011;10754;51.106;7.164;2023-04-03T04:04:32;1.83;;;1.30;;
21192;SDS011;10754;51.106;7.164;2023-04-03T04:06:58;2.27;;;1.23;;
21192;SDS011;10754;51.106;7.164;2023-04-03T04:09:25;2.53;;;1.47;;
21192;SDS011;10754;51.106;7.164;2023-04-03T04:11:51;1.97;;;1.20;;
21192;SDS011;10754;51.106;7.164;2023-04-03T04:14:17;1.60;;;1.43;;
21192;SDS011;10754;51.106;7.164;2023-04-03T04:16:42;1.83;;;1.20;;
21192;SDS011;10754;51.106;7.164;2023-04-03T04:19:08;2.23;;;1.50;;
21192;SDS011;10754;51.106;7.164;2023-04-03T04:21:33;2.87;;;1.53;;
21192;SDS011;10754;51.106;7.164;2023-04-03T04:23:59;1.87;;;1.20;;
21192;SDS011;10754;51.106;7.164;2023-04-03T04:26:25;2.37;;;1.50;;
21192;SDS011;10754;51.106;7.164;2023-04-03T04:28:50;3.97;;;1.90;;
21192;SDS011;10754;51.106;7.164;2023-04-03T04:31:16;3.67;;;2.10;;
21192;SDS011;10754;51.106;7.164;2023-04-03T04:33:42;4.40;;;1.80;;
21192;SDS011;10754;51.106;7.164;2023-04-03T04:36:07;3.77;;;1.80;;
21192;SDS011;10754;51.106;7.164;2023-04-03T04:38:33;2.50;;;1.50;;
21192;SDS011;10754;51.106;7.164;2023-04-03T04:40:58;4.17;;;1.70;;
21192;SDS011;10754;51.106;7.164;2023-04-03T04:43:23;3.30;;;1.50;;
21192;SDS011;10754;51.106;7.164;2023-04-03T04:45:59;3.03;;;1.57;;
21192;SDS011;10754;51.106;7.164;2023-04-03T04:48:28;2.07;;;1.67;;
21192;SDS011;10754;51.106;7.164;2023-04-03T04:50:53;3.90;;;1.63;;
21192;SDS011;10754;51.106;7.164;2023-04-03T04:53:19;3.80;;;1.93;;
21192;SDS011;10754;51.106;7.164;2023-04-03T04:55:44;3.43;;;2.03;;
21192;SDS011;10754;51.106;7.164;2023-04-03T04:58:10;2.67;;;1.43;;
21192;SDS011;10754;51.106;7.164;2023-04-03T05:00:35;2.40;;;1.13;;
21192;SDS011;10754;51.106;7.164;2023-04-03T05:03:01;1.87;;;1.23;;
21192;SDS011;10754;51.106;7.164;2023-04-03T05:05:26;2.37;;;1.50;;
21192;SDS011;10754;51.106;7.164;2023-04-03T05:07:52;3.13;;;1.50;;
21192;SDS011;10754;51.106;7.164;2023-04-03T05:10:18;2.23;;;1.20;;
21192;SDS011;10754;51.106;7.164;2023-04-03T05:12:43;2.30;;;1.43;;
21192;SDS011;10754;51.106;7.164;2023-04-03T05:15:09;2.10;;;1.30;;
21192;SDS011;10754;51.106;7.164;2023-04-03T05:17:34;2.87;;;2.00;;
21192;SDS011;10754;51.106;7.164;2023-04-03T05:20:00;4.30;;;1.90;;
21192;SDS011;10754;51.106;7.164;2023-04-03T05:22:26;5.53;;;2.67;;
21192;SDS011;10754;51.106;7.164;2023-04-03T05:24:52;3.50;;;2.90;;
21192;SDS011;10754;51.106;7.164;2023-04-03T05:27:17;4.77;;;2.80;;
21192;SDS011;10754;51.106;7.164;2023-04-03T05:29:43;3.73;;;2.47;;
21192;SDS011;10754;51.106;7.164;2023-04-03T05:32:09;3.87;;;2.60;;
21192;SDS011;10754;51.106;7.164;2023-04-03T05:34:35;1.90;;;1.47;;
21192;SDS011;10754;51.106;7.164;2023-04-03T05:37:01;2.63;;;2.10;;
21192;SDS011;10754;51.106;7.164;2023-04-03T05:39:28;3.33;;;2.27;;
21192;SDS011;10754;51.106;7.164;2023-04-03T05:41:53;3.53;;;2.37;;
21192;SDS011;10754;51.106;7.164;2023-04-03T05:44:19;2.87;;;1.97;;
21192;SDS011;10754;51.106;7.164;2023-04-03T05:46:44;2.80;;;2.13;;
21192;SDS011;10754;51.106;7.164;2023-04-03T05:49:10;3.27;;;2.03;;
21192;SDS011;10754;51.106;7.164;2023-04-03T05:51:36;3.40;;;2.20;;
21192;SDS011;10754;51.106;7.164;2023-04-03T05:56:53;3.90;;;3.53;;
21192;SDS011;10754;51.106;7.164;2023-04-03T05:59:19;5.73;;;3.33;;
21192;SDS011;10754;51.106;7.164;2023-04-03T06:01:45;3.13;;;2.20;;
21192;SDS011;10754;51.106;7.164;2023-04-03T06:04:11;2.30;;;1.50;;
21192;SDS011;10754;51.106;7.164;2023-04-03T06:06:48;2.73;;;1.73;;
21192;SDS011;10754;51.106;7.164;2023-04-03T06:09:14;4.07;;;1.70;;
21192;SDS011;10754;51.106;7.164;2023-04-03T06:11:41;2.73;;;1.80;;
21192;SDS011;10754;51.106;7.164;2023-04-03T06:14:06;4.13;;;2.17;;
21192;SDS011;10754;51.106;7.164;2023-04-03T06:16:33;2.43;;;1.40;;
21192;SDS011;10754;51.106;7.164;2023-04-03T06:18:59;3.43;;;1.50;;
21192;SDS011;10754;51.106;7.164;2023-04-03T06:21:24;3.37;;;1.67;;
21192;SDS011;10754;51.106;7.164;2023-04-03T06:23:50;1.70;;;1.50;;
21192;SDS011;10754;51.106;7.164;2023-04-03T06:26:16;1.90;;;1.57;;
21192;SDS011;10754;51.106;7.164;2023-04-03T06:28:42;1.97;;;1.40;;
21192;SDS011;10754;51.106;7.164;2023-04-03T06:31:07;3.83;;;1.97;;
21192;SDS011;10754;51.106;7.164;2023-04-03T06:33:33;4.60;;;1.90;;
21192;SDS011;10754;51.106;7.164;2023-04-03T06:35:59;2.80;;;1.83;;
21192;SDS011;10754;51.106;7.164;2023-04-03T06:38:28;3.33;;;1.80;;
21192;SDS011;10754;51.106;7.164;2023-04-03T06:40:53;3.90;;;1.60;;
21192;SDS011;10754;51.106;7.164;2023-04-03T06:43:19;3.50;;;1.57;;
21192;SDS011;10754;51.106;7.164;2023-04-03T06:45:45;1.93;;;1.40;;
21192;SDS011;10754;51.106;7.164;2023-04-03T06:48:11;4.17;;;1.80;;
21192;SDS011;10754;51.106;7.164;2023-04-03T06:50:37;2.60;;;1.57;;
21192;SDS011;10754;51.106;7.164;2023-04-03T06:53:03;3.03;;;1.40;;
21192;SDS011;10754;51.106;7.164;2023-04-03T06:55:28;8.67;;;2.00;;
21192;SDS011;10754;51.106;7.164;2023-04-03T06:57:54;2.67;;;1.70;;
21192;SDS011;10754;51.106;7.164;2023-04-03T07:00:20;2.23;;;1.20;;
21192;SDS011;10754;51.106;7.164;2023-04-03T07:02:46;2.83;;;1.40;;
21192;SDS011;10754;51.106;7.164;2023-04-03T07:05:11;3.17;;;1.20;;
21192;SDS011;10754;51.106;7.164;2023-04-03T07:07:38;2.77;;;1.80;;
21192;SDS011;10754;51.106;7.164;2023-04-03T07:10:04;2.10;;;1.20;;
21192;SDS011;10754;51.106;7.164;2023-04-03T07:12:31;2.67;;;1.13;;
21192;SDS011;10754;51.106;7.164;2023-04-03T07:14:56;2.53;;;1.20;;
21192;SDS011;10754;51.106;7.164;2023-04-03T07:17:22;3.47;;;1.33;;
21192;SDS011;10754;51.106;7.164;2023-04-03T07:19:47;2.30;;;1.37;;
21192;SDS011;10754;51.106;7.164;2023-04-03T07:22:13;2.60;;;1.37;;
21192;SDS011;10754;51.106;7.164;2023-04-03T07:24:39;2.90;;;1.47;;
21192;SDS011;10754;51.106;7.164;2023-04-03T07:27:04;3.00;;;1.20;;
21192;SDS011;10754;51.106;7.164;2023-04-03T07:29:30;2.77;;;1.60;;
21192;SDS011;10754;51.106;7.164;2023-04-03T07:31:56;2.37;;;1.50;;
21192;SDS011;10754;51.106;7.164;2023-04-03T07:34:22;3.10;;;1.50;;
21192;SDS011;10754;51.106;7.164;2023-04-03T07:36:47;6.17;;;3.50;;
21192;SDS011;10754;51.106;7.164;2023-04-03T07:39:13;2.67;;;1.67;;
21192;SDS011;10754;51.106;7.164;2023-04-03T07:41:38;2.03;;;1.30;;
21192;SDS011;10754;51.106;7.164;2023-04-03T07:44:04;3.73;;;1.57;;
21192;SDS011;10754;51.106;7.164;2023-04-03T07:46:30;3.00;;;1.20;;
21192;SDS011;10754;51.106;7.164;2023-04-03T07:48:56;2.57;;;1.57;;
21192;SDS011;10754;51.106;7.164;2023-04-03T07:51:22;2.50;;;1.10;;
21192;SDS011;10754;51.106;7.164;2023-04-03T07:53:49;2.13;;;1.40;;
21192;SDS011;10754;51.106;7.164;2023-04-03T07:56:16;3.37;;;1.30;;
21192;SDS011;10754;51.106;7.164;2023-04-03T07:58:42;3.60;;;1.10;;
21192;SDS011;10754;51.106;7.164;2023-04-03T08:01:07;2.63;;;0.90;;
21192;SDS011;10754;51.106;7.164;2023-04-03T08:03:33;1.83;;;1.33;;
21192;SDS011;10754;51.106;7.164;2023-04-03T08:06:05;2.83;;;1.23;;
21192;SDS011;10754;51.106;7.164;2023-04-03T08:08:32;2.67;;;1.40;;
21192;SDS011;10754;51.106;7.164;2023-04-03T08:10:59;3.00;;;1.37;;
21192;SDS011;10754;51.106;7.164;2023-04-03T08:13:26;2.60;;;1.13;;
21192;SDS011;10754;51.106;7.164;2023-04-03T08:15:52;2.60;;;1.43;;
21192;SDS011;10754;51.106;7.164;2023-04-03T08:18:18;2.10;;;1.40;;
21192;SDS011;10754;51.106;7.164;2023-04-03T08:20:46;1.77;;;1.00;;
21192;SDS011;10754;51.106;7.164;2023-04-03T08:23:12;1.83;;;1.10;;
21192;SDS011;10754;51.106;7.164;2023-04-03T08:25:39;2.57;;;1.33;;
21192;SDS011;10754;51.106;7.164;2023-04-03T08:28:06;2.97;;;1.43;;
21192;SDS011;10754;51.106;7.164;2023-04-03T08:30:32;1.83;;;1.17;;
21192;SDS011;10754;51.106;7.164;2023-04-03T08:33:00;1.90;;;0.97;;
21192;SDS011;10754;51.106;7.164;2023-04-03T08:35:26;1.97;;;1.33;;
21192;SDS011;10754;51.106;7.164;2023-04-03T08:37:52;2.43;;;1.03;;
21192;SDS011;10754;51.106;7.164;2023-04-03T08:40:17;3.10;;;1.10;;
21192;SDS011;10754;51.106;7.164;2023-04-03T08:45:21;1.10;;;0.70;;
21192;SDS011;10754;51.106;7.164;2023-04-03T08:50:48;2.60;;;0.90;;
21192;SDS011;10754;51.106;7.164;2023-04-03T08:53:19;2.37;;;1.10;;
21192;SDS011;10754;51.106;7.164;2023-04-03T08:55:48;2.53;;;0.87;;
21192;SDS011;10754;51.106;7.164;2023-04-03T08:58:16;1.47;;;1.00;;
21192;SDS011;10754;51.106;7.164;2023-04-03T09:03:36;1.87;;;1.23;;
21192;SDS011;10754;51.106;7.164;2023-04-03T09:08:43;2.13;;;1.10;;
21192;SDS011;10754;51.106;7.164;2023-04-03T09:11:27;2.03;;;1.20;;
21192;SDS011;10754;51.106;7.164;2023-04-03T09:14:30;1.50;;;0.90;;
21192;SDS011;10754;51.106;7.164;2023-04-03T09:17:26;1.73;;;0.67;;
21192;SDS011;10754;51.106;7.164;2023-04-03T09:20:14;2.23;;;1.10;;
21192;SDS011;10754;51.106;7.164;2023-04-03T09:23:08;3.93;;;1.47;;
21192;SDS011;10754;51.106;7.164;2023-04-03T09:25:41;1.30;;;0.70;;
21192;SDS011;10754;51.106;7.164;2023-04-03T09:28:08;3.00;;;1.10;;
21192;SDS011;10754;51.106;7.164;2023-04-03T09:30:35;2.43;;;0.90;;
21192;SDS011;10754;51.106;7.164;2023-04-03T09:33:02;1.50;;;0.60;;
21192;SDS011;10754;51.106;7.164;2023-04-03T09:35:32;2.23;;;0.70;;
21192;SDS011;10754;51.106;7.164;2023-04-03T09:38:01;1.70;;;0.90;;
21192;SDS011;10754;51.106;7.164;2023-04-03T09:40:48;1.70;;;0.77;;
21192;SDS011;10754;51.106;7.164;2023-04-03T09:43:20;1.57;;;0.67;;
21192;SDS011;10754;51.106;7.164;2023-04-03T09:45:46;2.03;;;1.00;;
21192;SDS011;10754;51.106;7.164;2023-04-03T09:50:52;1.43;;;0.40;;
21192;SDS011;10754;51.106;7.164;2023-04-03T09:58:44;0.93;;;0.50;;
21192;SDS011;10754;51.106;7.164;2023-04-03T10:01:30;1.53;;;0.60;;
21192;SDS011;10754;51.106;7.164;2023-04-03T10:04:14;0.90;;;0.57;;
21192;SDS011;10754;51.106;7.164;2023-04-03T10:06:42;1.70;;;0.90;;
21192;SDS011;10754;51.106;7.164;2023-04-03T10:09:26;1.43;;;0.80;;
21192;SDS011;10754;51.106;7.164;2023-04-03T10:11:59;0.87;;;0.43;;
21192;SDS011;10754;51.106;7.164;2023-04-03T10:14:35;0.67;;;0.50;;
21192;SDS011;10754;51.106;7.164;2023-04-03T10:19:44;2.50;;;0.80;;
21192;SDS011;10754;51.106;7.164;2023-04-03T10:25:12;1.33;;;0.50;;
21192;SDS011;10754;51.106;7.164;2023-04-03T10:36:07;0.87;;;0.40;;
21192;SDS011;10754;51.106;7.164;2023-04-03T10:38:57;2.70;;;0.70;;
21192;SDS011;10754;51.106;7.164;2023-04-03T10:44:16;0.83;;;0.57;;
21192;SDS011;10754;51.106;7.164;2023-04-03T10:47:16;1.57;;;0.90;;
21192;SDS011;10754;51.106;7.164;2023-04-03T10:52:24;2.73;;;0.80;;
21192;SDS011;10754;51.106;7.164;2023-04-03T10:57:57;1.13;;;0.30;;
21192;SDS011;10754;51.106;7.164;2023-04-03T11:00:33;1.47;;;0.70;;
21192;SDS011;10754;51.106;7.164;2023-04-03T11:03:13;1.47;;;0.73;;
21192;SDS011;10754;51.106;7.164;2023-04-03T11:05:52;1.30;;;0.70;;
21192;SDS011;10754;51.106;7.164;2023-04-03T11:08:27;1.63;;;0.50;;
21192;SDS011;10754;51.106;7.164;2023-04-03T11:11:06;1.30;;;0.57;;
21192;SDS011;10754;51.106;7.164;2023-04-03T11:13:39;1.23;;;0.40;;
21192;SDS011;10754;51.106;7.164;2023-04-03T11:16:09;1.00;;;0.63;;
21192;SDS011;10754;51.106;7.164;2023-04-03T11:18:52;1.02;;;0.50;;
21192;SDS011;10754;51.106;7.164;2023-04-03T11:21:28;2.22;;;0.63;;
21192;SDS011;10754;51.106;7.164;2023-04-03T11:23:59;0.75;;;0.50;;
21192;SDS011;10754;51.106;7.164;2023-04-03T11:26:30;1.58;;;0.50;;
21192;SDS011;10754;51.106;7.164;2023-04-03T11:29:03;1.35;;;0.60;;
21192;SDS011;10754;51.106;7.164;2023-04-03T11:36:53;0.70;;;0.50;;
21192;SDS011;10754;51.106;7.164;2023-04-03T11:39:31;0.70;;;0.30;;
21192;SDS011;10754;51.106;7.164;2023-04-03T11:43:02;0.50;;;0.40;;
21192;SDS011;10754;51.106;7.164;2023-04-03T11:47:50;0.70;;;0.60;;
21192;SDS011;10754;51.106;7.164;2023-04-03T11:53:47;2.13;;;0.73;;
21192;SDS011;10754;51.106;7.164;2023-04-03T11:55:53;1.17;;;0.50;;
21192;SDS011;10754;51.106;7.164;2023-04-03T11:58:22;0.77;;;0.40;;
21192;SDS011;10754;51.106;7.164;2023-04-03T12:05:48;0.70;;;0.70;;
21192;SDS011;10754;51.106;7.164;2023-04-03T12:08:16;0.90;;;0.82;;
21192;SDS011;10754;51.106;7.164;2023-04-03T12:11:13;1.05;;;0.57;;
21192;SDS011;10754;51.106;7.164;2023-04-03T12:19:03;0.43;;;0.43;;
21192;SDS011;10754;51.106;7.164;2023-04-03T12:29:33;1.13;;;0.40;;
21192;SDS011;10754;51.106;7.164;2023-04-03T12:43:50;0.52;;;0.45;;
21192;SDS011;10754;51.106;7.164;2023-04-03T12:46:45;0.52;;;0.40;;
21192;SDS011;10754;51.106;7.164;2023-04-03T12:49:24;0.88;;;0.50;;
21192;SDS011;10754;51.106;7.164;2023-04-03T12:52:16;0.50;;;0.40;;
21192;SDS011;10754;51.106;7.164;2023-04-03T12:54:43;0.73;;;0.38;;
21192;SDS011;10754;51.106;7.164;2023-04-03T12:57:12;0.70;;;0.40;;
21192;SDS011;10754;51.106;7.164;2023-04-03T12:59:38;1.70;;;0.60;;
21192;SDS011;10754;51.106;7.164;2023-04-03T13:02:09;1.30;;;0.60;;
21192;SDS011;10754;51.106;7.164;2023-04-03T13:04:44;1.27;;;0.57;;
21192;SDS011;10754;51.106;7.164;2023-04-03T13:07:18;0.85;;;0.45;;
21192;SDS011;10754;51.106;7.164;2023-04-03T13:09:57;0.80;;;0.55;;
21192;SDS011;10754;51.106;7.164;2023-04-03T13:12:25;1.15;;;0.40;;
21192;SDS011;10754;51.106;7.164;2023-04-03T13:14:54;0.90;;;0.55;;
21192;SDS011;10754;51.106;7.164;2023-04-03T13:17:22;0.63;;;0.43;;
21192;SDS011;10754;51.106;7.164;2023-04-03T13:19:49;1.58;;;0.55;;
21192;SDS011;10754;51.106;7.164;2023-04-03T13:22:29;1.10;;;0.50;;
21192;SDS011;10754;51.106;7.164;2023-04-03T13:25:04;0.93;;;0.40;;
21192;SDS011;10754;51.106;7.164;2023-04-03T13:27:32;0.95;;;0.43;;
21192;SDS011;10754;51.106;7.164;2023-04-03T13:29:59;0.52;;;0.35;;
21192;SDS011;10754;51.106;7.164;2023-04-03T13:32:27;0.95;;;0.60;;
21192;SDS011;10754;51.106;7.164;2023-04-03T13:34:54;0.73;;;0.50;;
21192;SDS011;10754;51.106;7.164;2023-04-03T13:40:04;1.38;;;0.60;;
21192;SDS011;10754;51.106;7.164;2023-04-03T13:42:37;0.65;;;0.57;;
21192;SDS011;10754;51.106;7.164;2023-04-03T13:45:17;1.10;;;0.60;;
21192;SDS011;10754;51.106;7.164;2023-04-03T13:47:49;1.30;;;0.75;;
21192;SDS011;10754;51.106;7.164;2023-04-03T13:50:24;1.17;;;0.60;;
21192;SDS011;10754;51.106;7.164;2023-04-03T13:53:01;0.95;;;0.60;;
21192;SDS011;10754;51.106;7.164;2023-04-03T13:55:51;1.05;;;0.50;;
21192;SDS011;10754;51.106;7.164;2023-04-03T13:58:23;2.58;;;0.90;;
21192;SDS011;10754;51.106;7.164;2023-04-03T14:03:32;1.02;;;0.57;;
21192;SDS011;10754;51.106;7.164;2023-04-03T14:06:05;1.85;;;1.10;;
21192;SDS011;10754;51.106;7.164;2023-04-03T14:08:31;1.02;;;0.50;;
21192;SDS011;10754;51.106;7.164;2023-04-03T14:10:57;1.73;;;0.80;;
21192;SDS011;10754;51.106;7.164;2023-04-03T14:13:22;1.55;;;0.80;;
21192;SDS011;10754;51.106;7.164;2023-04-03T14:15:48;2.13;;;0.73;;
21192;SDS011;10754;51.106;7.164;2023-04-03T14:18:18;1.25;;;0.75;;
21192;SDS011;10754;51.106;7.164;2023-04-03T14:20:45;1.67;;;0.80;;
21192;SDS011;10754;51.106;7.164;2023-04-03T14:23:11;1.40;;;0.60;;
21192;SDS011;10754;51.106;7.164;2023-04-03T14:25:37;1.25;;;1.02;;
21192;SDS011;10754;51.106;7.164;2023-04-03T14:28:13;2.08;;;0.90;;
21192;SDS011;10754;51.106;7.164;2023-04-03T14:30:46;1.42;;;0.80;;
21192;SDS011;10754;51.106;7.164;2023-04-03T14:33:14;1.27;;;0.80;;
21192;SDS011;10754;51.106;7.164;2023-04-03T14:35:42;0.98;;;0.60;;
21192;SDS011;10754;51.106;7.164;2023-04-03T14:38:12;1.25;;;0.65;;
21192;SDS011;10754;51.106;7.164;2023-04-03T14:40:48;1.70;;;0.70;;
21192;SDS011;10754;51.106;7.164;2023-04-03T14:43:13;1.25;;;0.70;;
21192;SDS011;10754;51.106;7.164;2023-04-03T14:45:40;1.80;;;1.05;;
21192;SDS011;10754;51.106;7.164;2023-04-03T14:48:06;1.35;;;0.70;;
21192;SDS011;10754;51.106;7.164;2023-04-03T14:50:41;1.27;;;0.65;;
21192;SDS011;10754;51.106;7.164;2023-04-03T14:53:07;1.42;;;0.88;;
21192;SDS011;10754;51.106;7.164;2023-04-03T14:55:34;1.33;;;0.80;;
21192;SDS011;10754;51.106;7.164;2023-04-03T14:58:00;1.77;;;0.80;;
21192;SDS011;10754;51.106;7.164;2023-04-03T15:00:26;0.90;;;0.50;;
21192;SDS011;10754;51.106;7.164;2023-04-03T15:02:51;1.70;;;0.98;;
21192;SDS011;10754;51.106;7.164;2023-04-03T15:05:17;1.30;;;0.73;;
21192;SDS011;10754;51.106;7.164;2023-04-03T15:07:54;2.05;;;1.05;;
21192;SDS011;10754;51.106;7.164;2023-04-03T15:10:22;3.78;;;0.80;;
21192;SDS011;10754;51.106;7.164;2023-04-03T15:12:52;2.05;;;1.13;;
21192;SDS011;10754;51.106;7.164;2023-04-03T15:15:18;1.73;;;0.80;;
21192;SDS011;10754;51.106;7.164;2023-04-03T15:17:45;2.47;;;1.23;;
21192;SDS011;10754;51.106;7.164;2023-04-03T15:20:14;0.70;;;0.63;;
21192;SDS011;10754;51.106;7.164;2023-04-03T15:22:42;1.48;;;0.75;;
21192;SDS011;10754;51.106;7.164;2023-04-03T15:25:08;1.88;;;0.95;;
21192;SDS011;10754;51.106;7.164;2023-04-03T15:27:34;2.05;;;0.60;;
21192;SDS011;10754;51.106;7.164;2023-04-03T15:30:01;1.25;;;0.82;;
21192;SDS011;10754;51.106;7.164;2023-04-03T15:32:27;2.60;;;0.90;;
21192;SDS011;10754;51.106;7.164;2023-04-03T15:34:53;1.88;;;1.00;;
21192;SDS011;10754;51.106;7.164;2023-04-03T15:37:19;1.02;;;0.60;;
21192;SDS011;10754;51.106;7.164;2023-04-03T15:39:45;2.47;;;0.98;;
21192;SDS011;10754;51.106;7.164;2023-04-03T15:42:10;2.17;;;0.80;;
21192;SDS011;10754;51.106;7.164;2023-04-03T15:44:37;1.45;;;0.90;;
21192;SDS011;10754;51.106;7.164;2023-04-03T15:47:03;1.70;;;0.75;;
21192;SDS011;10754;51.106;7.164;2023-04-03T15:49:28;1.45;;;0.70;;
21192;SDS011;10754;51.106;7.164;2023-04-03T15:51:55;1.42;;;0.80;;
21192;SDS011;10754;51.106;7.164;2023-04-03T15:54:21;1.13;;;0.60;;
21192;SDS011;10754;51.106;7.164;2023-04-03T15:56:48;0.90;;;0.55;;
21192;SDS011;10754;51.106;7.164;2023-04-03T15:59:14;1.35;;;0.60;;
21192;SDS011;10754;51.106;7.164;2023-04-03T16:01:40;1.45;;;0.63;;
21192;SDS011;10754;51.106;7.164;2023-04-03T16:04:07;1.33;;;0.90;;
21192;SDS011;10754;51.106;7.164;2023-04-03T16:06:34;2.42;;;0.85;;
21192;SDS011;10754;51.106;7.164;2023-04-03T16:08:59;1.98;;;0.80;;
21192;SDS011;10754;51.106;7.164;2023-04-03T16:11:25;1.02;;;0.70;;
21192;SDS011;10754;51.106;7.164;2023-04-03T16:13:52;1.52;;;0.70;;
21192;SDS011;10754;51.106;7.164;2023-04-03T16:16:18;3.20;;;0.77;;
21192;SDS011;10754;51.106;7.164;2023-04-03T16:18:44;1.15;;;0.60;;
21192;SDS011;10754;51.106;7.164;2023-04-03T16:21:11;1.27;;;0.70;;
21192;SDS011;10754;51.106;7.164;2023-04-03T16:23:39;1.50;;;0.77;;
21192;SDS011;10754;51.106;7.164;2023-04-03T16:26:05;1.95;;;0.95;;
21192;SDS011;10754;51.106;7.164;2023-04-03T16:28:30;0.98;;;0.80;;
21192;SDS011;10754;51.106;7.164;2023-04-03T16:30:56;1.35;;;0.77;;
21192;SDS011;10754;51.106;7.164;2023-04-03T16:33:22;1.65;;;0.80;;